Terminal Aerodrome Forecast
Issued by NWS

Current Version | Previous Version | Graphics & Text | Print | Product List | Glossary On
Versions: 1 2 3 4 5 6 7 8 9 10 11 12 13 14 15 16 17 18 19 20 21
000
FTUS41 KILN 051700
TAFLUK
TAF
KLUK 051735Z 0518/0618 23008KT P6SM SCT070
     FM060000 00000KT P6SM SKC
     FM060600 00000KT 4SM BR SKC
     FM060800 00000KT 2SM BR SKC
     FM061300 00000KT P6SM SKC
     FM061500 26005KT P6SM SCT050=

USA.gov is the U.S. government's official web portal to all federal, state and local government web resources and services.